Wetterdaten: Woche 09.09.19 - 15.09.19 (KW37)
Datum Zeit Temp. Aussen Temp. o. S. +5cm Feuchte Auss Luftdruck Regen Sonnenschein Regendauer Solar Windben Empfang
09.09.2019 00:00 13,0 C 11,7 C 11,3 C 88 % 1018,2 hPa 0,0 l/m 0,00 h 0,00 h 0 W/m 0,0 km/h (0 Bft) 95,36 %
09.09.2019 01:00 12,6 C 11,7 C 11,4 C 89 % 1017,9 hPa 0,0 l/m 0,00 h 0,00 h 0 W/m 0,1 km/h (0 Bft) 99,43 %
09.09.2019 02:00 12,4 C 11,7 C 11,4 C 91 % 1017,7 hPa 0,0 l/m 0,00 h 0,00 h 0 W/m 0,2 km/h (0 Bft) 97,58 %
09.09.2019 03:00 12,2 C 11,1 C 10,8 C 91 % 1017,4 hPa 0,0 l/m 0,00 h 0,00 h 0 W/m 0,0 km/h (0 Bft) 95,23 %
09.09.2019 04:00 11,5 C 9,5 C 9,4 C 91 % 1017,0 hPa 0,0 l/m 0,00 h 0,00 h 0 W/m 0,1 km/h (0 Bft) 98,73 %
09.09.2019 05:00 10,5 C 8,6 C 8,7 C 92 % 1017,1 hPa 0,0 l/m 0,00 h 0,00 h 0 W/m 0,1 km/h (0 Bft) 98,00 %
09.09.2019 06:00 9,6 C 8,1 C 8,2 C 93 % 1017,3 hPa 0,0 l/m 0,00 h 0,00 h 0 W/m 0,6 km/h (0 Bft) 97,75 %
09.09.2019 07:00 9,1 C 8,4 C 8,3 C 94 % 1017,3 hPa 0,0 l/m 0,00 h 0,00 h 19 W/m 0,2 km/h (0 Bft) 96,01 %
09.09.2019 08:00 9,3 C 9,4 C 9,2 C 95 % 1017,0 hPa 0,0 l/m 0,00 h 0,00 h 51 W/m 2,0 km/h (1 Bft) 98,50 %
09.09.2019 09:00 10,6 C 13,1 C 11,8 C 96 % 1016,9 hPa 0,0 l/m 0,40 h 0,00 h 195 W/m 1,8 km/h (1 Bft) 98,36 %
09.09.2019 10:00 14,2 C 19,5 C 18,1 C 87 % 1016,7 hPa 0,0 l/m 1,00 h 0,00 h 565 W/m 7,1 km/h (2 Bft) 97,43 %
09.09.2019 11:00 16,2 C 21,2 C 16,2 C 76 % 1016,3 hPa 0,0 l/m 1,00 h 0,00 h 625 W/m 8,3 km/h (2 Bft) 95,65 %
09.09.2019 12:00 17,3 C 21,0 C 16,7 C 69 % 1015,9 hPa 0,0 l/m 0,50 h 0,00 h 410 W/m 6,0 km/h (2 Bft) 97,50 %
09.09.2019 13:00 18,8 C 23,7 C 19,4 C 63 % 1015,6 hPa 0,0 l/m 0,70 h 0,00 h 627 W/m 5,9 km/h (2 Bft) 96,37 %
09.09.2019 14:00 19,7 C 21,6 C 19,0 C 57 % 1015,4 hPa 0,0 l/m 0,37 h 0,00 h 443 W/m 7,4 km/h (2 Bft) 99,15 %
09.09.2019 15:00 19,3 C 23,2 C 18,7 C 57 % 1014,9 hPa 0,0 l/m 0,73 h 0,00 h 571 W/m 7,0 km/h (2 Bft) 99,86 %
09.09.2019 16:00 19,3 C 21,1 C 18,3 C 55 % 1014,6 hPa 0,0 l/m 0,60 h 0,00 h 319 W/m 7,9 km/h (2 Bft) 94,44 %
09.09.2019 17:00 19,4 C 21,0 C 17,5 C 56 % 1014,4 hPa 0,0 l/m 0,73 h 0,00 h 272 W/m 3,3 km/h (1 Bft) 98,86 %
09.09.2019 18:00 18,3 C 17,1 C 15,5 C 60 % 1014,3 hPa 0,0 l/m 0,17 h 0,00 h 79 W/m 1,2 km/h (1 Bft) 98,52 %
09.09.2019 19:00 16,5 C 14,1 C 12,7 C 68 % 1014,4 hPa 0,0 l/m 0,00 h 0,00 h 28 W/m 0,0 km/h (0 Bft) 95,73 %
09.09.2019 20:00 14,2 C 11,2 C 10,6 C 74 % 1014,7 hPa 0,0 l/m 0,00 h 0,00 h 4 W/m 0,0 km/h (0 Bft) 99,22 %
09.09.2019 21:00 12,4 C 10,0 C 9,7 C 79 % 1015,1 hPa 0,0 l/m 0,00 h 0,00 h 0 W/m 0,0 km/h (0 Bft) 97,87 %
09.09.2019 22:00 11,5 C 10,4 C 9,7 C 82 % 1015,3 hPa 0,0 l/m 0,00 h 0,00 h 0 W/m 0,1 km/h (0 Bft) 97,58 %
09.09.2019 23:00 11,0 C 9,0 C 8,6 C 83 % 1015,5 hPa 0,0 l/m 0,00 h 0,00 h 0 W/m 0,0 km/h (0 Bft) 96,94 %
10.09.2019 00:00 10,2 C 8,4 C 7,9 C 84 % 1015,6 hPa 0,0 l/m 0,00 h 0,00 h 0 W/m 0,0 km/h (0 Bft) 96,77 %
10.09.2019 01:00 9,5 C 7,5 C 7,5 C 86 % 1015,4 hPa 0,0 l/m 0,00 h 0,00 h 0 W/m 0,0 km/h (0 Bft) 96,51 %
10.09.2019 02:00 8,8 C 7,1 C 6,8 C 87 % 1015,5 hPa 0,0 l/m 0,00 h 0,00 h 0 W/m 0,0 km/h (0 Bft) 98,86 %
10.09.2019 03:00 8,3 C 6,7 C 6,4 C 88 % 1015,7 hPa 0,0 l/m 0,00 h 0,00 h 0 W/m 0,0 km/h (0 Bft) 98,29 %
10.09.2019 04:00 7,8 C 6,1 C 6,0 C 89 % 1016,0 hPa 0,0 l/m 0,00 h 0,00 h 0 W/m 0,0 km/h (0 Bft) 96,72 %
10.09.2019 05:00 7,5 C 6,1 C 5,8 C 91 % 1016,2 hPa 0,0 l/m 0,00 h 0,00 h 0 W/m 0,0 km/h (0 Bft) 96,06 %
10.09.2019 06:00 7,1 C 5,7 C 5,6 C 92 % 1016,3 hPa 0,0 l/m 0,00 h 0,00 h 0 W/m 0,0 km/h (0 Bft) 98,89 %
10.09.2019 07:00 7,0 C 6,2 C 6,0 C 93 % 1016,7 hPa 0,0 l/m 0,00 h 0,00 h 14 W/m 0,1 km/h (0 Bft) 97,37 %
10.09.2019 08:00 8,0 C 8,6 C 8,0 C 95 % 1017,3 hPa 0,0 l/m 0,00 h 0,00 h 38 W/m 0,4 km/h (0 Bft) 97,06 %
10.09.2019 09:00 9,9 C 14,5 C 11,7 C 96 % 1018,0 hPa 0,0 l/m 0,53 h 0,00 h 233 W/m 3,8 km/h (1 Bft) 96,15 %
10.09.2019 10:00 14,5 C 20,6 C 19,8 C 84 % 1018,5 hPa 0,0 l/m 1,00 h 0,00 h 513 W/m 8,7 km/h (2 Bft) 98,01 %
10.09.2019 11:00 18,1 C 24,7 C 17,3 C 66 % 1018,6 hPa 0,0 l/m 1,00 h 0,00 h 641 W/m 4,8 km/h (1 Bft) 98,60 %
10.09.2019 12:00 20,7 C 27,6 C 18,5 C 56 % 1018,4 hPa 0,0 l/m 1,00 h 0,00 h 741 W/m 5,9 km/h (2 Bft) 97,57 %
10.09.2019 13:00 22,0 C 27,4 C 21,7 C 51 % 1018,6 hPa 0,0 l/m 0,97 h 0,00 h 757 W/m 8,1 km/h (2 Bft) 99,00 %
10.09.2019 14:00 22,1 C 27,1 C 21,1 C 51 % 1018,7 hPa 0,0 l/m 0,90 h 0,00 h 686 W/m 6,4 km/h (2 Bft) 97,38 %
10.09.2019 15:00 22,5 C 27,5 C 20,5 C 49 % 1018,6 hPa 0,0 l/m 1,00 h 0,00 h 660 W/m 7,0 km/h (2 Bft) 95,31 %
10.09.2019 16:00 23,0 C 27,3 C 22,0 C 48 % 1018,6 hPa 0,0 l/m 1,00 h 0,00 h 544 W/m 7,8 km/h (2 Bft) 100,00 %
10.09.2019 17:00 22,6 C 25,6 C 19,9 C 46 % 1018,6 hPa 0,0 l/m 1,00 h 0,00 h 368 W/m 5,2 km/h (1 Bft) 98,01 %
10.09.2019 18:00 20,8 C 19,3 C 17,3 C 50 % 1019,0 hPa 0,0 l/m 0,10 h 0,00 h 79 W/m 2,9 km/h (1 Bft) 95,39 %
10.09.2019 19:00 18,8 C 16,6 C 14,5 C 55 % 1019,4 hPa 0,0 l/m 0,00 h 0,00 h 24 W/m 0,1 km/h (0 Bft) 99,78 %
10.09.2019 20:00 16,3 C 13,1 C 11,9 C 65 % 1019,8 hPa 0,0 l/m 0,00 h 0,00 h 4 W/m 0,0 km/h (0 Bft) 96,72 %
10.09.2019 21:00 14,0 C 11,4 C 10,6 C 71 % 1020,3 hPa 0,0 l/m 0,00 h 0,00 h 0 W/m 0,0 km/h (0 Bft) 98,36 %
10.09.2019 22:00 12,5 C 10,5 C 9,6 C 75 % 1020,6 hPa 0,0 l/m 0,00 h 0,00 h 0 W/m 0,0 km/h (0 Bft) 96,37 %
10.09.2019 23:00 11,5 C 9,8 C 9,1 C 77 % 1020,9 hPa 0,0 l/m 0,00 h 0,00 h 0 W/m 0,0 km/h (0 Bft) 97,15 %
11.09.2019 00:00 10,7 C 9,3 C 8,8 C 81 % 1020,9 hPa 0,0 l/m 0,00 h 0,00 h 0 W/m 0,0 km/h (0 Bft) 96,59 %
11.09.2019 01:00 10,2 C 8,9 C 8,3 C 84 % 1021,0 hPa 0,0 l/m 0,00 h 0,00 h 0 W/m 0,0 km/h (0 Bft) 97,81 %
11.09.2019 02:00 9,6 C 8,4 C 7,8 C 87 % 1021,1 hPa 0,0 l/m 0,00 h 0,00 h 0 W/m 0,0 km/h (0 Bft) 99,43 %
11.09.2019 03:00 9,6 C 9,6 C 9,0 C 90 % 1021,5 hPa 0,0 l/m 0,00 h 0,00 h 0 W/m 0,0 km/h (0 Bft) 95,02 %
11.09.2019 04:00 10,2 C 10,4 C 10,3 C 92 % 1021,5 hPa 0,0 l/m 0,00 h 0,00 h 0 W/m 1,1 km/h (0 Bft) 98,15 %
11.09.2019 05:00 11,0 C 10,7 C 10,6 C 88 % 1021,5 hPa 0,0 l/m 0,00 h 0,00 h 0 W/m 2,2 km/h (1 Bft) 97,93 %
11.09.2019 06:00 11,4 C 10,6 C 10,4 C 87 % 1021,6 hPa 0,0 l/m 0,00 h 0,00 h 0 W/m 3,3 km/h (1 Bft) 96,83 %
11.09.2019 07:00 11,3 C 11,0 C 10,6 C 87 % 1021,8 hPa 0,0 l/m 0,00 h 0,00 h 18 W/m 4,2 km/h (1 Bft) 96,87 %
11.09.2019 08:00 12,0 C 12,2 C 11,8 C 87 % 1022,2 hPa 0,0 l/m 0,00 h 0,00 h 49 W/m 5,5 km/h (1 Bft) 97,15 %
11.09.2019 09:00 13,9 C 16,7 C 15,2 C 83 % 1022,4 hPa 0,0 l/m 0,70 h 0,00 h 233 W/m 9,3 km/h (2 Bft) 97,65 %
11.09.2019 10:00 17,2 C 20,2 C 19,1 C 73 % 1022,4 hPa 0,0 l/m 0,63 h 0,00 h 377 W/m 13,0 km/h (3 Bft) 97,79 %
11.09.2019 11:00 19,3 C 21,5 C 19,6 C 65 % 1022,3 hPa 0,0 l/m 0,97 h 0,00 h 413 W/m 15,9 km/h (3 Bft) 97,15 %
11.09.2019 12:00 19,4 C 19,8 C 19,0 C 64 % 1022,2 hPa 0,0 l/m 0,30 h 0,20 h 280 W/m 19,8 km/h (3 Bft) 97,68 %
11.09.2019 13:00 18,1 C 16,6 C 15,7 C 73 % 1022,7 hPa 0,0 l/m 0,00 h 0,83 h 191 W/m 12,8 km/h (3 Bft) 97,44 %
11.09.2019 14:00 17,0 C 15,5 C 14,9 C 81 % 1022,9 hPa 0,0 l/m 0,00 h 0,63 h 109 W/m 10,0 km/h (2 Bft) 97,30 %
11.09.2019 15:00 16,3 C 15,2 C 14,5 C 86 % 1022,7 hPa 0,0 l/m 0,00 h 0,30 h 83 W/m 8,8 km/h (2 Bft) 97,51 %
11.09.2019 16:00 16,6 C 16,3 C 15,6 C 84 % 1022,3 hPa 0,2 l/m 0,00 h 0,33 h 112 W/m 13,4 km/h (3 Bft) 98,16 %
11.09.2019 17:00 16,7 C 14,6 C 14,2 C 85 % 1022,5 hPa 0,0 l/m 0,00 h 0,37 h 60 W/m 8,6 km/h (2 Bft) 96,65 %
11.09.2019 18:00 16,5 C 15,7 C 15,1 C 84 % 1022,6 hPa 0,2 l/m 0,00 h 0,03 h 24 W/m 14,4 km/h (3 Bft) 97,31 %
11.09.2019 19:00 16,4 C 14,0 C 13,8 C 86 % 1022,9 hPa 0,2 l/m 0,00 h 0,83 h 7 W/m 11,2 km/h (2 Bft) 98,15 %
11.09.2019 20:00 15,7 C 13,7 C 13,2 C 90 % 1023,2 hPa 0,2 l/m 0,00 h 0,33 h 0 W/m 4,1 km/h (1 Bft) 97,16 %
11.09.2019 21:00 15,3 C 14,1 C 13,3 C 92 % 1023,5 hPa 0,0 l/m 0,00 h 0,00 h 0 W/m 5,0 km/h (1 Bft) 96,78 %
11.09.2019 22:00 15,5 C 15,2 C 13,7 C 91 % 1023,7 hPa 0,0 l/m 0,00 h 0,00 h 0 W/m 6,4 km/h (2 Bft) 97,87 %
11.09.2019 23:00 16,3 C 15,6 C 14,4 C 89 % 1023,9 hPa 0,0 l/m 0,00 h 0,00 h 0 W/m 11,4 km/h (2 Bft) 98,67 %
12.09.2019 00:00 16,4 C 15,3 C 14,7 C 91 % 1024,1 hPa 0,0 l/m 0,00 h 0,00 h 0 W/m 9,8 km/h (2 Bft) 92,13 %
12.09.2019 01:00 16,2 C 15,3 C 15,0 C 94 % 1024,5 hPa 0,0 l/m 0,00 h 0,00 h 0 W/m 5,5 km/h (1 Bft) 98,08 %
12.09.2019 02:00 16,3 C 15,5 C 15,1 C 95 % 1024,8 hPa 0,0 l/m 0,00 h 0,00 h 0 W/m 3,2 km/h (1 Bft) 99,15 %
12.09.2019 03:00 16,6 C 15,9 C 15,6 C 96 % 1025,0 hPa 0,0 l/m 0,00 h 0,00 h 0 W/m 6,4 km/h (2 Bft) 94,95 %
12.09.2019 04:00 16,7 C 16,1 C 15,6 C 96 % 1025,2 hPa 0,0 l/m 0,00 h 0,00 h 0 W/m 7,4 km/h (2 Bft) 98,64 %
12.09.2019 05:00 16,7 C 16,1 C 15,6 C 97 % 1025,3 hPa 0,0 l/m 0,00 h 0,00 h 0 W/m 9,3 km/h (2 Bft) 99,43 %
12.09.2019 06:00 16,8 C 16,1 C 15,8 C 97 % 1025,7 hPa 0,0 l/m 0,00 h 0,00 h 0 W/m 6,4 km/h (2 Bft) 94,88 %
12.09.2019 07:00 16,9 C 16,3 C 16,1 C 96 % 1026,2 hPa 0,0 l/m 0,00 h 0,00 h 12 W/m 3,0 km/h (1 Bft) 97,72 %
12.09.2019 08:00 17,2 C 17,1 C 16,6 C 96 % 1026,7 hPa 0,0 l/m 0,00 h 0,00 h 50 W/m 6,2 km/h (2 Bft) 98,86 %
12.09.2019 09:00 17,8 C 18,2 C 17,4 C 95 % 1028,3 hPa 0,0 l/m 0,00 h 0,00 h 101 W/m 8,1 km/h (2 Bft) 97,00 %
12.09.2019 10:00 19,0 C 20,2 C 19,2 C 91 % 1030,2 hPa 0,0 l/m 0,23 h 0,00 h 210 W/m 9,8 km/h (2 Bft) 96,65 %
12.09.2019 11:00 20,8 C 23,0 C 21,2 C 81 % 1031,7 hPa 0,0 l/m 0,67 h 0,00 h 314 W/m 9,3 km/h (2 Bft) 98,08 %
12.09.2019 12:00 21,5 C 23,3 C 21,4 C 74 % 1032,7 hPa 0,0 l/m 0,30 h 0,00 h 314 W/m 12,3 km/h (3 Bft) 98,89 %
12.09.2019 13:00 23,4 C 27,7 C 24,3 C 66 % 1033,1 hPa 0,0 l/m 0,83 h 0,00 h 648 W/m 12,7 km/h (3 Bft) 94,87 %
12.09.2019 14:00 24,4 C 27,4 C 23,9 C 62 % 1032,8 hPa 0,0 l/m 0,70 h 0,00 h 584 W/m 14,8 km/h (3 Bft) 98,72 %
12.09.2019 15:00 24,5 C 26,7 C 23,3 C 60 % 1031,9 hPa 0,0 l/m 0,60 h 0,00 h 474 W/m 12,6 km/h (3 Bft) 99,71 %
12.09.2019 16:00 24,6 C 27,3 C 23,6 C 59 % 1029,5 hPa 0,0 l/m 0,83 h 0,00 h 478 W/m 12,8 km/h (3 Bft) 94,46 %
12.09.2019 17:00 24,7 C 25,8 C 22,8 C 59 % 1026,9 hPa 0,0 l/m 0,77 h 0,00 h 301 W/m 12,8 km/h (3 Bft) 99,07 %
12.09.2019 18:00 23,4 C 22,5 C 21,7 C 62 % 1026,4 hPa 0,0 l/m 0,03 h 0,00 h 62 W/m 13,5 km/h (3 Bft) 98,97 %
12.09.2019 19:00 22,4 C 21,3 C 20,7 C 64 % 1026,2 hPa 0,0 l/m 0,00 h 0,00 h 25 W/m 7,0 km/h (2 Bft) 96,01 %
12.09.2019 20:00 21,7 C 20,1 C 19,6 C 67 % 1027,2 hPa 0,0 l/m 0,00 h 0,00 h 0 W/m 2,1 km/h (1 Bft) 98,47 %
12.09.2019 21:00 20,2 C 18,1 C 16,7 C 71 % 1028,4 hPa 0,0 l/m 0,00 h 0,00 h 0 W/m 1,1 km/h (0 Bft) 97,74 %
12.09.2019 22:00 19,1 C 17,6 C 16,3 C 75 % 1028,2 hPa 0,0 l/m 0,00 h 0,00 h 0 W/m 1,4 km/h (1 Bft) 97,29 %
12.09.2019 23:00 18,4 C 17,2 C 16,8 C 80 % 1028,1 hPa 0,0 l/m 0,00 h 0,00 h 0 W/m 1,8 km/h (1 Bft) 97,29 %
13.09.2019 00:00 18,5 C 17,7 C 17,3 C 85 % 1028,1 hPa 0,0 l/m 0,00 h 0,00 h 0 W/m 5,4 km/h (1 Bft) 97,26 %
13.09.2019 01:00 18,7 C 18,0 C 17,8 C 86 % 1028,1 hPa 0,0 l/m 0,00 h 0,00 h 0 W/m 4,9 km/h (1 Bft) 97,65 %
13.09.2019 02:00 19,0 C 18,1 C 17,8 C 87 % 1028,2 hPa 0,0 l/m 0,00 h 0,00 h 0 W/m 5,4 km/h (1 Bft) 97,65 %
13.09.2019 03:00 18,7 C 17,8 C 17,4 C 85 % 1028,3 hPa 0,0 l/m 0,00 h 0,00 h 0 W/m 6,0 km/h (2 Bft) 97,15 %
13.09.2019 04:00 18,3 C 17,3 C 17,1 C 85 % 1028,6 hPa 0,0 l/m 0,00 h 0,00 h 0 W/m 7,2 km/h (2 Bft) 97,72 %
13.09.2019 05:00 18,0 C 17,0 C 16,7 C 87 % 1028,6 hPa 0,0 l/m 0,00 h 0,00 h 0 W/m 5,4 km/h (1 Bft) 97,43 %
13.09.2019 06:00 17,8 C 16,7 C 16,7 C 89 % 1029,1 hPa 0,0 l/m 0,00 h 0,00 h 0 W/m 7,4 km/h (2 Bft) 97,31 %
13.09.2019 07:00 17,5 C 16,5 C 16,2 C 91 % 1029,8 hPa 0,0 l/m 0,00 h 0,00 h 6 W/m 4,6 km/h (1 Bft) 97,72 %
13.09.2019 08:00 17,2 C 16,1 C 15,7 C 93 % 1031,0 hPa 0,0 l/m 0,00 h 0,00 h 24 W/m 4,2 km/h (1 Bft) 97,79 %
13.09.2019 09:00 17,2 C 16,1 C 15,6 C 96 % 1032,7 hPa 0,2 l/m 0,00 h 0,33 h 66 W/m 4,6 km/h (1 Bft) 97,44 %
13.09.2019 10:00 17,6 C 17,6 C 16,7 C 97 % 1033,9 hPa 0,0 l/m 0,03 h 0,00 h 155 W/m 3,3 km/h (1 Bft) 96,66 %
13.09.2019 11:00 18,1 C 17,8 C 17,4 C 96 % 1035,2 hPa 0,0 l/m 0,00 h 0,00 h 114 W/m 3,6 km/h (1 Bft) 97,86 %
13.09.2019 12:00 19,0 C 20,5 C 19,6 C 93 % 1036,4 hPa 0,0 l/m 0,00 h 0,00 h 217 W/m 4,1 km/h (1 Bft) 98,26 %
13.09.2019 13:00 19,8 C 18,9 C 18,4 C 87 % 1037,4 hPa 0,2 l/m 0,00 h 0,23 h 151 W/m 4,5 km/h (1 Bft) 96,48 %
13.09.2019 14:00 19,6 C 21,1 C 19,0 C 88 % 1038,1 hPa 0,0 l/m 0,40 h 0,00 h 303 W/m 5,0 km/h (1 Bft) 97,72 %
13.09.2019 15:00 21,7 C 25,4 C 21,3 C 75 % 1038,5 hPa 0,0 l/m 0,63 h 0,00 h 423 W/m 6,6 km/h (2 Bft) 97,30 %
13.09.2019 16:00 22,1 C 23,8 C 21,4 C 70 % 1038,4 hPa 0,0 l/m 0,40 h 0,00 h 292 W/m 5,6 km/h (1 Bft) 98,08 %
13.09.2019 17:00 21,6 C 21,8 C 20,4 C 69 % 1038,6 hPa 0,0 l/m 0,33 h 0,00 h 177 W/m 4,5 km/h (1 Bft) 97,59 %
13.09.2019 18:00 20,8 C 20,2 C 19,2 C 67 % 1038,6 hPa 0,0 l/m 0,00 h 0,00 h 83 W/m 4,9 km/h (1 Bft) 96,16 %
13.09.2019 19:00 19,8 C 17,9 C 17,0 C 69 % 1033,0 hPa 0,0 l/m 0,00 h 0,00 h 22 W/m 1,3 km/h (1 Bft) 98,85 %
13.09.2019 20:00 18,4 C 16,5 C 15,9 C 73 % 1032,2 hPa 0,0 l/m 0,00 h 0,00 h 0 W/m 0,2 km/h (0 Bft) 97,66 %
13.09.2019 21:00 17,2 C 14,9 C 14,2 C 74 % 1032,9 hPa 0,0 l/m 0,00 h 0,00 h 0 W/m 0,5 km/h (0 Bft) 97,86 %
13.09.2019 22:00 15,8 C 14,2 C 14,0 C 78 % 1033,2 hPa 0,0 l/m 0,00 h 0,00 h 0 W/m 1,3 km/h (1 Bft) 96,77 %
13.09.2019 23:00 14,9 C 13,4 C 13,1 C 78 % 1032,8 hPa 0,0 l/m 0,00 h 0,00 h 0 W/m 1,4 km/h (1 Bft) 98,51 %
14.09.2019 00:00 14,0 C 12,4 C 12,0 C 79 % 1032,1 hPa 0,0 l/m 0,00 h 0,00 h 0 W/m 0,6 km/h (0 Bft) 97,55 %
14.09.2019 01:00 13,0 C 11,4 C 10,9 C 80 % 1031,7 hPa 0,0 l/m 0,00 h 0,00 h 0 W/m 0,0 km/h (0 Bft) 98,22 %
14.09.2019 02:00 12,3 C 11,0 C 10,4 C 82 % 1031,5 hPa 0,0 l/m 0,00 h 0,00 h 0 W/m 0,3 km/h (0 Bft) 97,37 %
14.09.2019 03:00 11,7 C 9,9 C 9,4 C 83 % 1030,7 hPa 0,0 l/m 0,00 h 0,00 h 0 W/m 0,0 km/h (0 Bft) 95,87 %
14.09.2019 04:00 10,8 C 8,9 C 8,4 C 84 % 1030,3 hPa 0,0 l/m 0,00 h 0,00 h 0 W/m 0,0 km/h (0 Bft) 99,48 %
14.09.2019 05:00 10,1 C 8,9 C 8,2 C 87 % 1030,1 hPa 0,0 l/m 0,00 h 0,00 h 0 W/m 0,0 km/h (0 Bft) 98,01 %
14.09.2019 06:00 9,7 C 8,1 C 7,6 C 89 % 1029,9 hPa 0,0 l/m 0,00 h 0,00 h 0 W/m 0,0 km/h (0 Bft) 95,95 %
14.09.2019 07:00 9,2 C 8,3 C 7,6 C 90 % 1029,6 hPa 0,0 l/m 0,00 h 0,00 h 13 W/m 0,0 km/h (0 Bft) 96,30 %
14.09.2019 08:00 9,6 C 10,1 C 9,1 C 93 % 1029,6 hPa 0,0 l/m 0,00 h 0,00 h 32 W/m 0,9 km/h (0 Bft) 99,71 %
14.09.2019 09:00 11,7 C 16,6 C 13,4 C 94 % 1029,7 hPa 0,0 l/m 0,60 h 0,00 h 248 W/m 4,0 km/h (1 Bft) 97,24 %
14.09.2019 10:00 16,5 C 23,4 C 22,6 C 77 % 1031,5 hPa 0,0 l/m 1,00 h 0,00 h 507 W/m 4,8 km/h (1 Bft) 95,52 %
14.09.2019 11:00 19,4 C 26,4 C 17,5 C 65 % 1034,0 hPa 0,0 l/m 1,00 h 0,00 h 649 W/m 4,9 km/h (1 Bft) 95,58 %
14.09.2019 12:00 21,6 C 28,4 C 18,9 C 56 % 1033,6 hPa 0,0 l/m 1,00 h 0,00 h 743 W/m 5,2 km/h (1 Bft) 98,12 %
14.09.2019 13:00 22,5 C 28,2 C 22,6 C 52 % 1033,1 hPa 0,0 l/m 1,00 h 0,00 h 747 W/m 6,6 km/h (2 Bft) 97,22 %
14.09.2019 14:00 23,4 C 29,4 C 22,6 C 49 % 1032,5 hPa 0,0 l/m 1,00 h 0,00 h 748 W/m 5,6 km/h (1 Bft) 98,01 %
14.09.2019 15:00 24,0 C 28,8 C 22,1 C 46 % 1032,0 hPa 0,0 l/m 1,00 h 0,00 h 661 W/m 7,0 km/h (2 Bft) 97,51 %
14.09.2019 16:00 24,0 C 28,3 C 23,3 C 45 % 1031,1 hPa 0,0 l/m 1,00 h 0,00 h 527 W/m 5,2 km/h (1 Bft) 95,94 %
14.09.2019 17:00 24,0 C 26,2 C 21,2 C 44 % 1030,4 hPa 0,0 l/m 0,93 h 0,00 h 352 W/m 3,6 km/h (1 Bft) 98,78 %
14.09.2019 18:00 22,0 C 19,7 C 17,9 C 47 % 1030,2 hPa 0,0 l/m 0,00 h 0,00 h 58 W/m 0,9 km/h (0 Bft) 97,20 %
14.09.2019 19:00 19,7 C 17,0 C 15,6 C 53 % 1030,2 hPa 0,0 l/m 0,00 h 0,00 h 21 W/m 0,0 km/h (0 Bft) 97,01 %
14.09.2019 20:00 17,1 C 14,0 C 13,0 C 62 % 1029,9 hPa 0,0 l/m 0,00 h 0,00 h 0 W/m 0,0 km/h (0 Bft) 96,52 %
14.09.2019 21:00 14,8 C 12,4 C 11,5 C 68 % 1029,9 hPa 0,0 l/m 0,00 h 0,00 h 0 W/m 0,0 km/h (0 Bft) 99,71 %
14.09.2019 22:00 13,3 C 10,7 C 10,3 C 72 % 1029,6 hPa 0,0 l/m 0,00 h 0,00 h 0 W/m 0,0 km/h (0 Bft) 96,61 %
14.09.2019 23:00 12,0 C 9,8 C 9,4 C 74 % 1028,9 hPa 0,0 l/m 0,00 h 0,00 h 0 W/m 0,0 km/h (0 Bft) 98,43 %
15.09.2019 00:00 10,9 C 9,0 C 8,5 C 77 % 1028,1 hPa 0,0 l/m 0,00 h 0,00 h 0 W/m 0,0 km/h (0 Bft) 97,86 %
15.09.2019 01:00 10,1 C 8,2 C 7,9 C 80 % 1027,5 hPa 0,0 l/m 0,00 h 0,00 h 0 W/m 0,0 km/h (0 Bft) 96,16 %
15.09.2019 02:00 9,5 C 7,7 C 7,3 C 83 % 1027,3 hPa 0,0 l/m 0,00 h 0,00 h 0 W/m 0,0 km/h (0 Bft) 96,26 %
15.09.2019 03:00 8,9 C 7,4 C 7,2 C 85 % 1026,9 hPa 0,0 l/m 0,00 h 0,00 h 0 W/m 0,0 km/h (0 Bft) 97,54 %
15.09.2019 04:00 8,6 C 7,3 C 6,9 C 88 % 1026,6 hPa 0,0 l/m 0,00 h 0,00 h 0 W/m 0,0 km/h (0 Bft) 99,78 %
15.09.2019 05:00 8,5 C 8,2 C 7,4 C 91 % 1026,0 hPa 0,0 l/m 0,00 h 0,00 h 0 W/m 0,3 km/h (0 Bft) 95,87 %
15.09.2019 06:00 8,9 C 8,5 C 7,9 C 92 % 1025,8 hPa 0,0 l/m 0,00 h 0,00 h 0 W/m 1,0 km/h (0 Bft) 96,75 %
15.09.2019 07:00 8,8 C 8,2 C 7,9 C 91 % 1025,9 hPa 0,0 l/m 0,00 h 0,00 h 11 W/m 0,9 km/h (0 Bft) 97,51 %
15.09.2019 08:00 9,2 C 9,7 C 9,1 C 92 % 1025,7 hPa 0,0 l/m 0,00 h 0,00 h 29 W/m 0,4 km/h (0 Bft) 98,29 %
15.09.2019 09:00 11,3 C 16,8 C 13,1 C 92 % 1025,6 hPa 0,0 l/m 0,60 h 0,00 h 253 W/m 0,6 km/h (0 Bft) 96,66 %
15.09.2019 10:00 17,2 C 23,8 C 21,9 C 75 % 1024,3 hPa 0,0 l/m 1,00 h 0,00 h 473 W/m 5,8 km/h (2 Bft) 95,94 %
15.09.2019 11:00 21,1 C 25,9 C 20,6 C 61 % 1024,4 hPa 0,0 l/m 1,00 h 0,00 h 544 W/m 7,8 km/h (2 Bft) 97,69 %
15.09.2019 12:00 23,5 C 29,0 C 22,2 C 54 % 1024,1 hPa 0,0 l/m 1,00 h 0,00 h 689 W/m 8,9 km/h (2 Bft) 98,47 %
15.09.2019 13:00 24,4 C 29,0 C 24,7 C 52 % 1023,6 hPa 0,0 l/m 1,00 h 0,00 h 700 W/m 10,4 km/h (2 Bft) 96,87 %
15.09.2019 14:00 25,5 C 30,0 C 24,3 C 47 % 1022,9 hPa 0,0 l/m 1,00 h 0,00 h 685 W/m 10,8 km/h (2 Bft) 97,59 %
15.09.2019 15:00 26,0 C 29,8 C 24,1 C 43 % 1022,4 hPa 0,0 l/m 1,00 h 0,00 h 635 W/m 11,8 km/h (2 Bft) 99,65 %
15.09.2019 16:00 26,4 C 30,0 C 25,1 C 41 % 1021,9 hPa 0,0 l/m 1,00 h 0,00 h 527 W/m 10,6 km/h (2 Bft) 95,56 %
15.09.2019 17:00 26,3 C 28,3 C 24,0 C 43 % 1021,5 hPa 0,0 l/m 0,90 h 0,00 h 340 W/m 8,7 km/h (2 Bft) 97,94 %
15.09.2019 18:00 24,4 C 22,9 C 21,8 C 45 % 1021,2 hPa 0,0 l/m 0,00 h 0,00 h 54 W/m 5,7 km/h (1 Bft) 98,50 %
15.09.2019 19:00 22,6 C 20,3 C 18,1 C 51 % 1021,4 hPa 0,0 l/m 0,00 h 0,00 h 19 W/m 0,7 km/h (0 Bft) 96,79 %
15.09.2019 20:00 20,3 C 17,8 C 16,0 C 56 % 1021,8 hPa 0,0 l/m 0,00 h 0,00 h 0 W/m 1,1 km/h (0 Bft) 97,08 %
15.09.2019 21:00 18,7 C 16,2 C 15,0 C 66 % 1022,1 hPa 0,0 l/m 0,00 h 0,00 h 0 W/m 0,0 km/h (0 Bft) 98,57 %
15.09.2019 22:00 17,2 C 15,2 C 14,3 C 74 % 1022,3 hPa 0,0 l/m 0,00 h 0,00 h 0 W/m 0,1 km/h (0 Bft) 96,79 %
15.09.2019 23:00 16,5 C 14,6 C 14,1 C 81 % 1022,4 hPa 0,0 l/m 0,00 h 0,00 h 0 W/m 0,3 km/h (0 Bft) 98,72 %
Min-Datum _ 10.09.19 10.09.19 10.09.19 15.09.19 09.09.19 - - - - 09.09.19 12.09.19
_ Min-Zeit 07:16 05:50 04:38 15:52 17:22 - - - - 00:00 00:02
Minimum _ 6,9 C 5,6 C 5,6 C 40 % 1014,3 hPa - - - - 0,0 km/h (0 Bft) 7,14 %
Max-Datum _ 15.09.19 12.09.19 15.09.19 10.09.19 13.09.19 11.09.19 09.09.19 11.09.19 09.09.19 11.09.19 09.09.19
_ Max-Zeit 16:36 14:36 13:48 09:30 17:02 16:46 12:08 12:36 14:16 12:20 01:00
Maximum _ 26,6 C 31,7 C 30,0 C 97 % 1038,7 hPa 0,2 l/m 0,07 h 0,03 h 928 W/m 38,6 km/h
O (5 Bft)
100,00 %
Durchschnitt _ 16,3 C 16,6 C 15,0 C 77 % 1024,6 hPa #1,2 l/m #41:06 h #4:26 h 294 W/m 4,3 km/h (1 Bft) 97,47 %
© 2019 W. Hausmann